createdAt,value
2017-10-18T00:01:07.695Z,6.8
2017-10-18T00:02:26.341Z,6.8
2017-10-18T00:03:44.984Z,6.9
2017-10-18T00:05:03.688Z,7.1
2017-10-18T00:06:22.363Z,7.1
2017-10-18T00:07:41.048Z,7.3
2017-10-18T00:08:59.700Z,7.4
2017-10-18T00:10:18.364Z,7.7
2017-10-18T00:11:37.018Z,7.9
2017-10-18T00:12:55.709Z,7.7
2017-10-18T00:14:14.348Z,7.4
2017-10-18T00:15:33.063Z,7.3
2017-10-18T00:16:51.716Z,7.2
2017-10-18T00:18:10.366Z,7.2
2017-10-18T00:19:29.013Z,7.2
2017-10-18T00:20:47.689Z,7.2
2017-10-18T00:22:06.358Z,7.3
2017-10-18T00:23:25.002Z,7.5
2017-10-18T00:24:43.705Z,7.5
2017-10-18T00:26:02.431Z,7.5
2017-10-18T00:27:21.081Z,7.5
2017-10-18T00:28:39.728Z,7.3
2017-10-18T00:29:58.396Z,7.2
2017-10-18T00:31:17.073Z,7.2
2017-10-18T00:32:35.763Z,7.1
2017-10-18T00:33:54.407Z,7.1
2017-10-18T00:35:13.079Z,7
2017-10-18T00:36:31.774Z,6.9
2017-10-18T00:37:50.421Z,6.9
2017-10-18T00:39:09.108Z,6.9
2017-10-18T00:40:27.760Z,6.9
2017-10-18T00:41:46.452Z,6.9
2017-10-18T00:43:05.093Z,6.9
2017-10-18T00:44:23.734Z,7
2017-10-18T00:45:42.425Z,7
2017-10-18T00:47:01.070Z,7
2017-10-18T00:48:19.720Z,6.9
2017-10-18T00:49:38.375Z,6.9
2017-10-18T00:50:57.041Z,6.9
2017-10-18T00:52:15.767Z,6.9
2017-10-18T00:53:34.418Z,6.8
2017-10-18T00:54:53.094Z,6.8
2017-10-18T00:56:11.739Z,6.9
2017-10-18T00:57:30.442Z,7.1
2017-10-18T00:58:49.130Z,7.1
2017-10-18T01:00:07.844Z,7.1
2017-10-18T01:01:26.540Z,6.9
2017-10-18T01:02:45.273Z,6.9
2017-10-18T01:04:03.972Z,6.9
2017-10-18T01:05:22.624Z,6.9
2017-10-18T01:06:41.336Z,6.9
2017-10-18T01:08:00.000Z,7
2017-10-18T01:09:18.653Z,7
2017-10-18T01:10:37.330Z,7.1
2017-10-18T01:11:55.975Z,7
2017-10-18T01:13:14.653Z,7.1
2017-10-18T01:14:33.298Z,7
2017-10-18T01:15:51.989Z,7
2017-10-18T01:17:10.642Z,7.1
2017-10-18T01:18:29.326Z,7.2
2017-10-18T01:19:48.006Z,7.1
2017-10-18T01:21:06.657Z,7.1
2017-10-18T01:22:25.346Z,7
2017-10-18T01:23:44.026Z,7
2017-10-18T01:25:02.708Z,7.1
2017-10-18T01:26:21.403Z,7.2
2017-10-18T01:27:40.063Z,7.2
2017-10-18T01:28:58.796Z,7.2
2017-10-18T01:30:17.444Z,7.2
2017-10-18T01:31:36.147Z,7.1
2017-10-18T01:32:54.823Z,7.1
2017-10-18T01:34:13.479Z,7.1
2017-10-18T01:35:32.125Z,7.1
2017-10-18T01:36:50.828Z,7
2017-10-18T01:38:09.479Z,6.9
2017-10-18T01:39:28.161Z,6.9
2017-10-18T01:40:46.837Z,6.9
2017-10-18T01:42:05.487Z,6.9
2017-10-18T01:43:24.186Z,6.8
2017-10-18T01:44:42.875Z,6.8
2017-10-18T01:46:01.524Z,6.7
2017-10-18T01:47:20.170Z,6.7
2017-10-18T01:48:38.808Z,6.7
2017-10-18T01:49:57.527Z,6.6
2017-10-18T01:51:16.183Z,6.6
2017-10-18T01:52:34.831Z,6.6
2017-10-18T01:53:53.477Z,6.6
2017-10-18T01:55:12.198Z,6.7
2017-10-18T01:56:30.892Z,6.8
2017-10-18T01:57:49.538Z,6.8
2017-10-18T01:59:08.184Z,7
2017-10-18T02:00:26.843Z,7
2017-10-18T02:01:45.491Z,7
2017-10-18T02:03:04.173Z,6.9
2017-10-18T02:04:22.832Z,6.7
2017-10-18T02:05:41.514Z,6.7
2017-10-18T02:07:00.167Z,6.6
2017-10-18T02:08:18.818Z,6.6
2017-10-18T02:09:37.520Z,6.6
2017-10-18T02:10:56.235Z,6.5
2017-10-18T02:12:14.892Z,6.4
2017-10-18T02:13:33.556Z,6.5
2017-10-18T02:14:52.218Z,6.4
2017-10-18T02:16:10.868Z,6.4
2017-10-18T02:17:29.515Z,6.5
2017-10-18T02:18:48.172Z,6.5
2017-10-18T02:20:06.823Z,6.5
2017-10-18T02:21:25.517Z,6.6
2017-10-18T02:22:44.165Z,6.7
2017-10-18T02:24:02.821Z,6.6
2017-10-18T02:25:21.475Z,6.6
2017-10-18T02:26:40.156Z,6.6
2017-10-18T02:27:58.854Z,6.5
2017-10-18T02:29:17.552Z,6.5
2017-10-18T02:30:36.200Z,6.4
2017-10-18T02:31:54.933Z,6.4
2017-10-18T02:33:13.633Z,6.4
2017-10-18T02:34:32.280Z,6.4
2017-10-18T02:35:50.968Z,6.3
2017-10-18T02:37:09.662Z,6.3
2017-10-18T02:38:28.302Z,6.2
2017-10-18T02:39:46.960Z,6.2
2017-10-18T02:41:05.611Z,6.2
2017-10-18T02:42:24.289Z,6.3
2017-10-18T02:43:42.942Z,6.2
2017-10-18T02:45:01.616Z,6.2
2017-10-18T02:46:20.265Z,6.3
2017-10-18T02:47:38.966Z,6.3
2017-10-18T02:48:57.680Z,6.5
2017-10-18T02:50:16.331Z,6.5
2017-10-18T02:51:34.972Z,6.6
2017-10-18T02:52:53.641Z,6.5
2017-10-18T02:54:12.297Z,6.4
2017-10-18T02:55:30.945Z,6.5
2017-10-18T02:56:49.611Z,6.7
2017-10-18T02:58:08.304Z,6.7
2017-10-18T02:59:26.989Z,6.7
2017-10-18T03:00:45.636Z,6.6
2017-10-18T03:02:04.290Z,6.4
2017-10-18T03:03:22.957Z,6.3
2017-10-18T03:04:41.642Z,6.3
2017-10-18T03:06:00.310Z,6.3
2017-10-18T03:07:18.950Z,6.3
2017-10-18T03:08:37.623Z,6.4
2017-10-18T03:09:56.268Z,6.8
2017-10-18T03:11:14.911Z,7.1
2017-10-18T03:12:33.567Z,7.1
2017-10-18T03:13:52.319Z,7
2017-10-18T03:15:10.969Z,6.9
2017-10-18T03:16:29.614Z,7
2017-10-18T03:17:48.269Z,7.1
2017-10-18T03:19:06.950Z,6.9
2017-10-18T03:20:25.622Z,6.8
2017-10-18T03:21:44.262Z,6.7
2017-10-18T03:23:02.905Z,6.6
2017-10-18T03:24:21.558Z,6.5
2017-10-18T03:25:40.260Z,6.5
2017-10-18T03:26:58.906Z,6.5
2017-10-18T03:28:17.555Z,6.7
2017-10-18T03:29:36.249Z,6.7
2017-10-18T03:30:54.895Z,6.7
2017-10-18T03:32:13.604Z,6.9
2017-10-18T03:33:32.331Z,6.9
2017-10-18T03:34:50.982Z,6.9
2017-10-18T03:36:09.629Z,6.8
2017-10-18T03:37:28.287Z,6.9
2017-10-18T03:38:46.960Z,6.7
2017-10-18T03:40:05.681Z,6.6
2017-10-18T03:41:24.353Z,6.6
2017-10-18T03:42:43.018Z,6.7
2017-10-18T03:44:01.671Z,6.7
2017-10-18T03:45:20.353Z,6.6
2017-10-18T03:46:39.026Z,6.7
2017-10-18T03:47:57.672Z,6.8
2017-10-18T03:49:16.325Z,6.7
2017-10-18T03:50:34.997Z,6.7
2017-10-18T03:51:53.642Z,6.6
2017-10-18T03:53:12.371Z,6.5
2017-10-18T03:54:31.061Z,6.4
2017-10-18T03:55:49.754Z,6.5
2017-10-18T03:57:08.395Z,6.5
2017-10-18T03:58:27.048Z,6.4
2017-10-18T03:59:45.702Z,6.3
2017-10-18T04:01:04.385Z,6.2
2017-10-18T04:02:23.057Z,6.2
2017-10-18T04:03:41.703Z,6.2
2017-10-18T04:05:00.352Z,6.3
2017-10-18T04:06:19.040Z,6.5
2017-10-18T04:07:37.691Z,6.6
2017-10-18T04:08:56.392Z,6.5
2017-10-18T04:10:15.038Z,6.3
2017-10-18T04:11:33.707Z,6.2
2017-10-18T04:12:52.388Z,6.2
2017-10-18T04:14:11.043Z,6.2
2017-10-18T04:15:29.694Z,6.1
2017-10-18T04:16:48.381Z,6.1
2017-10-18T04:18:07.047Z,6.1
2017-10-18T04:19:25.732Z,6.1
2017-10-18T04:20:44.373Z,6.2
2017-10-18T04:22:03.038Z,6.2
2017-10-18T04:23:21.685Z,6.3
2017-10-18T04:24:40.335Z,6.2
2017-10-18T04:25:58.989Z,6.2
2017-10-18T04:27:17.676Z,6.2
2017-10-18T04:28:36.318Z,6.2
2017-10-18T04:29:54.965Z,6.2
2017-10-18T04:31:13.614Z,6.2
2017-10-18T04:32:32.295Z,6.3
2017-10-18T04:33:50.935Z,6.3
2017-10-18T04:35:09.581Z,6.3
2017-10-18T04:36:28.229Z,6.3
2017-10-18T04:37:46.892Z,6.3
2017-10-18T04:39:05.533Z,6.2
2017-10-18T04:40:24.181Z,6.2
2017-10-18T04:41:42.841Z,6.2
2017-10-18T04:43:01.561Z,6.3
2017-10-18T04:44:20.203Z,6.4
2017-10-18T04:45:38.856Z,6.5
2017-10-18T04:46:57.506Z,6.5
2017-10-18T04:48:16.200Z,6.8
2017-10-18T04:49:34.897Z,7
2017-10-18T04:50:53.552Z,7.1
2017-10-18T04:52:12.214Z,7
2017-10-18T04:53:30.875Z,6.9
2017-10-18T04:54:49.535Z,6.8
2017-10-18T04:56:08.203Z,6.7
2017-10-18T04:57:26.886Z,6.6
2017-10-18T04:58:45.543Z,6.6
2017-10-18T05:00:04.197Z,6.5
2017-10-18T05:01:22.841Z,6.5
2017-10-18T05:02:41.487Z,6.4
2017-10-18T05:04:00.219Z,6.3
2017-10-18T05:05:18.877Z,6.2
2017-10-18T05:06:37.522Z,6.3
2017-10-18T05:07:56.171Z,6.2
2017-10-18T05:09:14.837Z,6.3
2017-10-18T05:10:33.506Z,6.5
2017-10-18T05:11:52.173Z,6.6
2017-10-18T05:13:10.823Z,6.7
2017-10-18T05:14:29.506Z,6.6
2017-10-18T05:15:48.166Z,6.5
2017-10-18T05:17:06.835Z,6.4
2017-10-18T05:18:25.503Z,6.3
2017-10-18T05:19:44.223Z,6.3
2017-10-18T05:21:02.910Z,6.3
2017-10-18T05:22:21.561Z,6.3
2017-10-18T05:23:40.275Z,6.3
2017-10-18T05:24:58.928Z,6.3
2017-10-18T05:26:17.580Z,6.3
2017-10-18T05:27:36.278Z,6.3
2017-10-18T05:28:54.925Z,6.4
2017-10-18T05:30:13.598Z,6.3
2017-10-18T05:31:32.252Z,6.4
2017-10-18T05:32:50.908Z,6.7
2017-10-18T05:34:09.571Z,6.7
2017-10-18T05:35:28.279Z,6.6
2017-10-18T05:36:46.948Z,6.6
2017-10-18T05:38:05.644Z,6.6
2017-10-18T05:39:24.306Z,6.6
2017-10-18T05:40:42.968Z,6.5
2017-10-18T05:42:01.701Z,6.5
2017-10-18T05:43:20.351Z,6.5
2017-10-18T05:44:38.995Z,6.5
2017-10-18T05:45:57.679Z,6.5
2017-10-18T05:47:16.327Z,6.6
2017-10-18T05:48:34.971Z,6.6
2017-10-18T05:49:53.618Z,6.6
2017-10-18T05:51:12.354Z,6.6
2017-10-18T05:52:31.004Z,6.7
2017-10-18T05:53:49.659Z,6.7
2017-10-18T05:55:08.310Z,6.7
2017-10-18T05:56:26.979Z,6.7
2017-10-18T05:57:45.683Z,6.7
2017-10-18T05:59:04.335Z,6.8
2017-10-18T06:00:22.987Z,6.9
2017-10-18T06:01:41.694Z,6.9
2017-10-18T06:03:00.342Z,6.9
2017-10-18T06:04:19.016Z,6.9
2017-10-18T06:05:37.663Z,7
2017-10-18T06:06:56.346Z,7
2017-10-18T06:08:15.055Z,7.1
2017-10-18T06:09:33.697Z,7.1
2017-10-18T06:10:52.340Z,7.5
2017-10-18T06:12:10.995Z,7.6
2017-10-18T06:13:29.678Z,7.7
2017-10-18T06:14:48.332Z,8
2017-10-18T06:16:06.976Z,8.1
2017-10-18T06:17:25.653Z,8.2
2017-10-18T06:18:44.299Z,8.3
2017-10-18T06:20:02.954Z,8.3
2017-10-18T06:21:21.681Z,8.3
2017-10-18T06:22:40.418Z,8.3
2017-10-18T06:23:59.067Z,8.3
2017-10-18T06:25:17.708Z,8.2
2017-10-18T06:26:36.414Z,8.1
2017-10-18T06:27:55.067Z,8
2017-10-18T06:29:13.715Z,8
2017-10-18T06:30:32.365Z,8
2017-10-18T06:31:51.014Z,8.1
2017-10-18T06:33:09.690Z,8.2
2017-10-18T06:34:28.349Z,8.1
2017-10-18T06:35:47.054Z,8
2017-10-18T06:37:05.705Z,7.9
2017-10-18T06:38:24.415Z,7.9
2017-10-18T06:39:43.096Z,8
2017-10-18T06:41:01.748Z,8
2017-10-18T06:42:20.396Z,8.1
2017-10-18T06:43:39.118Z,8.1
2017-10-18T06:44:57.765Z,8.1
2017-10-18T06:46:16.488Z,8.2
2017-10-18T06:47:35.133Z,8.2
2017-10-18T06:48:53.857Z,8.3
2017-10-18T06:50:12.499Z,8.3
2017-10-18T06:51:31.139Z,8.4
2017-10-18T06:52:49.836Z,8.4
2017-10-18T06:54:08.538Z,8.4
2017-10-18T06:55:27.229Z,8.5
2017-10-18T06:56:45.885Z,8.5
2017-10-18T06:58:04.545Z,8.5
2017-10-18T06:59:23.218Z,8.5
2017-10-18T07:00:41.869Z,8.5
2017-10-18T07:02:00.524Z,8.5
2017-10-18T07:03:19.182Z,8.4
2017-10-18T07:04:37.900Z,8.4
2017-10-18T07:05:56.575Z,8.4
2017-10-18T07:07:15.281Z,8.4
2017-10-18T07:08:33.936Z,8.4
2017-10-18T07:09:52.621Z,8.3
2017-10-18T07:11:11.293Z,8.3
2017-10-18T07:12:29.973Z,8.3
2017-10-18T07:13:48.619Z,8.4
2017-10-18T07:15:07.303Z,8.4
2017-10-18T07:16:25.948Z,8.3
2017-10-18T07:17:44.649Z,8.3
2017-10-18T07:19:03.298Z,8.4
2017-10-18T07:20:21.988Z,8.4
2017-10-18T07:21:40.670Z,8.4
2017-10-18T07:22:59.326Z,8.4
2017-10-18T07:24:17.968Z,8.4
2017-10-18T07:25:36.698Z,8.5
2017-10-18T07:26:55.398Z,8.5
2017-10-18T07:28:14.105Z,8.6
2017-10-18T07:29:32.773Z,8.7
2017-10-18T07:30:51.474Z,8.7
2017-10-18T07:32:10.139Z,8.7
2017-10-18T07:33:28.813Z,8.7
2017-10-18T07:34:47.458Z,8.7
2017-10-18T07:36:06.173Z,8.8
2017-10-18T07:37:24.824Z,8.8
2017-10-18T07:38:43.488Z,8.9
2017-10-18T07:40:02.137Z,8.9
2017-10-18T07:41:20.831Z,8.9
2017-10-18T07:42:39.484Z,8.9
2017-10-18T07:43:58.123Z,9
2017-10-18T07:45:16.819Z,9
2017-10-18T07:46:35.478Z,9.1
2017-10-18T07:47:54.122Z,9.1
2017-10-18T07:49:12.817Z,9.2
2017-10-18T07:50:31.498Z,9.3
2017-10-18T07:51:50.182Z,9.3
2017-10-18T07:53:08.831Z,9.4
2017-10-18T07:54:27.478Z,9.5
2017-10-18T07:55:46.145Z,9.5
2017-10-18T07:57:04.901Z,9.5
2017-10-18T07:58:23.564Z,9.6
2017-10-18T07:59:42.213Z,9.7
2017-10-18T08:01:00.855Z,9.8
2017-10-18T08:02:19.578Z,9.8
2017-10-18T08:03:38.240Z,9.9
2017-10-18T08:04:56.895Z,9.9
2017-10-18T08:06:15.559Z,10
2017-10-18T08:07:34.240Z,10.1
2017-10-18T08:08:52.944Z,10.2
2017-10-18T08:10:11.610Z,10.3
2017-10-18T08:11:30.267Z,10.3
2017-10-18T08:12:49.023Z,10.4
2017-10-18T08:14:07.730Z,10.4
2017-10-18T08:15:26.426Z,10.6
2017-10-18T08:16:45.100Z,10.6
2017-10-18T08:18:03.801Z,10.7
2017-10-18T08:19:22.482Z,10.8
2017-10-18T08:20:41.173Z,10.9
2017-10-18T08:21:59.848Z,10.9
2017-10-18T08:23:18.578Z,11
2017-10-18T08:24:37.259Z,11.1
2017-10-18T08:25:55.940Z,11.1
2017-10-18T08:27:14.624Z,11.2
2017-10-18T08:28:33.331Z,11.3
2017-10-18T08:29:52.049Z,11.4
2017-10-18T08:31:10.714Z,11.5
2017-10-18T08:32:29.400Z,11.5
2017-10-18T08:33:48.122Z,11.6
2017-10-18T08:35:06.785Z,11.7
2017-10-18T08:36:25.456Z,11.8
2017-10-18T08:37:44.127Z,11.9
2017-10-18T08:39:02.811Z,11.9
2017-10-18T08:40:21.492Z,12
2017-10-18T08:41:40.154Z,12.1
2017-10-18T08:42:58.817Z,12.2
2017-10-18T08:44:17.568Z,12.3
2017-10-18T08:45:36.237Z,12.3
2017-10-18T08:46:54.948Z,12.3
2017-10-18T08:48:13.617Z,12.4
2017-10-18T08:49:32.334Z,12.5
2017-10-18T08:50:51.067Z,12.5
2017-10-18T08:52:09.729Z,12.5
2017-10-18T08:53:28.396Z,12.6
2017-10-18T08:54:47.070Z,12.6
2017-10-18T08:56:05.777Z,12.7
2017-10-18T08:57:24.450Z,12.7
2017-10-18T08:58:43.122Z,12.8
2017-10-18T09:00:01.822Z,12.9
2017-10-18T09:01:20.485Z,12.9
2017-10-18T09:02:39.157Z,13.1
2017-10-18T09:03:57.854Z,13.2
2017-10-18T09:05:16.570Z,13.3
2017-10-18T09:06:35.233Z,13.4
2017-10-18T09:07:53.951Z,13.5
2017-10-18T09:09:12.656Z,13.6
2017-10-18T09:10:31.345Z,13.8
2017-10-18T09:11:50.050Z,13.9
2017-10-18T09:13:08.732Z,14
2017-10-18T09:14:27.452Z,14.1
2017-10-18T09:15:46.150Z,14.2
2017-10-18T09:17:04.819Z,14.3
2017-10-18T09:18:23.536Z,14.4
2017-10-18T09:19:42.254Z,14.6
2017-10-18T09:21:00.990Z,14.8
2017-10-18T09:22:19.653Z,14.9
2017-10-18T09:23:38.311Z,15
2017-10-18T09:24:57.005Z,15.1
2017-10-18T09:26:15.690Z,15.2
2017-10-18T09:27:34.409Z,15.3
2017-10-18T09:28:53.073Z,15.4
2017-10-18T09:30:11.741Z,15.4
2017-10-18T09:31:30.446Z,15.5
2017-10-18T09:32:49.160Z,15.6
2017-10-18T09:34:07.833Z,15.7
2017-10-18T09:35:26.539Z,15.7
2017-10-18T09:36:45.207Z,15.8
2017-10-18T09:38:03.928Z,15.9
2017-10-18T09:39:22.642Z,16.1
2017-10-18T09:40:41.299Z,16.1
2017-10-18T09:42:00.038Z,16.2
2017-10-18T09:43:18.706Z,16.3
2017-10-18T09:44:37.377Z,16.4
2017-10-18T09:45:56.090Z,16.5
2017-10-18T09:47:14.790Z,16.5
2017-10-18T09:48:33.456Z,16.6
2017-10-18T09:49:52.125Z,16.8
2017-10-18T09:51:10.816Z,16.9
2017-10-18T09:52:29.542Z,17.1
2017-10-18T09:53:48.207Z,17.1
2017-10-18T09:55:06.902Z,17.3
2017-10-18T09:56:25.636Z,17.5
2017-10-18T09:57:44.362Z,17.6
2017-10-18T09:59:03.076Z,17.6
2017-10-18T10:00:21.756Z,17.6
2017-10-18T10:01:40.421Z,17.6
2017-10-18T10:02:59.160Z,17.6
2017-10-18T10:04:17.873Z,17.6
2017-10-18T10:05:36.533Z,17.7
2017-10-18T10:06:55.224Z,17.7
2017-10-18T10:08:13.906Z,17.7
2017-10-18T10:09:32.583Z,17.7
2017-10-18T10:10:51.298Z,17.7
2017-10-18T10:12:09.970Z,17.7
2017-10-18T10:13:28.653Z,17.8
2017-10-18T10:14:47.309Z,17.9
2017-10-18T10:16:05.979Z,17.9
2017-10-18T10:17:24.641Z,17.9
2017-10-18T10:18:43.381Z,18
2017-10-18T10:20:02.097Z,18
2017-10-18T10:21:20.815Z,18
2017-10-18T10:22:39.483Z,18
2017-10-18T10:23:58.175Z,18
2017-10-18T10:25:16.836Z,18
2017-10-18T10:26:35.529Z,18
2017-10-18T10:27:54.188Z,17.9
2017-10-18T10:29:12.853Z,17.9
2017-10-18T10:30:31.567Z,18
2017-10-18T10:31:50.277Z,18.1
2017-10-18T10:33:09.024Z,18.3
2017-10-18T10:34:27.725Z,18.3
2017-10-18T10:35:46.430Z,18.3
2017-10-18T10:37:05.106Z,18.3
2017-10-18T10:38:23.781Z,18.3
2017-10-18T10:39:42.477Z,18.4
2017-10-18T10:41:01.142Z,18.4
2017-10-18T10:42:19.856Z,18.5
2017-10-18T10:43:38.520Z,18.5
2017-10-18T10:44:57.229Z,18.5
2017-10-18T10:46:15.888Z,18.6
2017-10-18T10:47:34.543Z,18.6
2017-10-18T10:48:53.204Z,18.7
2017-10-18T10:50:11.902Z,18.7
2017-10-18T10:51:30.630Z,18.7
2017-10-18T10:52:49.310Z,18.7
2017-10-18T10:54:07.973Z,18.8
2017-10-18T10:55:26.676Z,18.8
2017-10-18T10:56:45.356Z,18.8
2017-10-18T10:58:04.022Z,18.9
2017-10-18T10:59:22.684Z,18.9
2017-10-18T11:00:41.413Z,18.9
2017-10-18T11:02:00.119Z,18.9
2017-10-18T11:03:18.845Z,18.8
2017-10-18T11:04:37.508Z,18.8
2017-10-18T11:05:56.213Z,18.8
2017-10-18T11:07:14.873Z,18.9
2017-10-18T11:08:33.595Z,18.9
2017-10-18T11:09:52.292Z,18.9
2017-10-18T11:11:10.977Z,19
2017-10-18T11:12:29.641Z,19
2017-10-18T11:13:48.303Z,19.1
2017-10-18T11:15:06.967Z,19
2017-10-18T11:16:25.660Z,19.1
2017-10-18T11:17:44.320Z,19.1
2017-10-18T11:19:03.034Z,19.1
2017-10-18T11:20:21.698Z,19.1
2017-10-18T11:21:40.438Z,19.1
2017-10-18T11:22:59.096Z,19.2
2017-10-18T11:24:17.752Z,19.3
2017-10-18T11:25:36.417Z,19.3
2017-10-18T11:26:55.081Z,19.3
2017-10-18T11:28:13.806Z,19.3
2017-10-18T11:29:32.473Z,19.3
2017-10-18T11:30:51.157Z,19.3
2017-10-18T11:32:09.873Z,19.4
2017-10-18T11:33:28.543Z,19.4
2017-10-18T11:34:47.218Z,19.4
2017-10-18T11:36:05.936Z,19.4
2017-10-18T11:37:24.635Z,19.4
2017-10-18T11:38:43.294Z,19.5
2017-10-18T11:40:02.006Z,19.5
2017-10-18T11:41:20.678Z,19.5
2017-10-18T11:42:39.388Z,19.5
2017-10-18T11:43:58.074Z,19.6
2017-10-18T11:45:16.783Z,19.6
2017-10-18T11:46:35.496Z,19.6
2017-10-18T11:47:54.187Z,19.6
2017-10-18T11:49:12.887Z,19.7
2017-10-18T11:50:31.580Z,19.7
2017-10-18T11:51:50.270Z,19.8
2017-10-18T11:53:08.986Z,19.8
2017-10-18T11:54:27.655Z,19.8
2017-10-18T11:55:46.322Z,19.9
2017-10-18T11:57:04.997Z,19.8
2017-10-18T11:58:23.741Z,19.8
2017-10-18T11:59:42.402Z,19.9
2017-10-18T12:01:01.115Z,19.9
2017-10-18T12:02:19.786Z,19.9
2017-10-18T12:03:38.455Z,20
2017-10-18T12:04:57.167Z,20.1
2017-10-18T12:06:15.885Z,20.1
2017-10-18T12:07:34.592Z,20.1
2017-10-18T12:08:53.289Z,20.2
2017-10-18T12:10:11.956Z,20.3
2017-10-18T12:11:30.621Z,20.6
2017-10-18T12:12:49.338Z,20.9
2017-10-18T12:14:08.011Z,21.5
2017-10-18T12:15:26.725Z,23
2017-10-18T12:16:45.391Z,26.5
2017-10-18T12:18:04.055Z,30
2017-10-18T12:19:22.752Z,32
2017-10-18T12:20:41.480Z,32.8
2017-10-18T12:22:00.178Z,33.3
2017-10-18T12:23:18.869Z,34.2
2017-10-18T12:24:37.569Z,34.5
2017-10-18T12:25:56.231Z,34.6
2017-10-18T12:27:14.954Z,34.7
2017-10-18T12:28:33.623Z,34.8
2017-10-18T12:29:52.313Z,34.9
2017-10-18T12:31:10.984Z,35
2017-10-18T12:32:29.641Z,34.8
2017-10-18T12:33:48.319Z,34.9
2017-10-18T12:35:06.998Z,34.9
2017-10-18T12:36:25.659Z,35
2017-10-18T12:37:44.319Z,35.1
2017-10-18T12:39:02.986Z,35.2
2017-10-18T12:40:21.712Z,35.2
2017-10-18T12:41:40.372Z,35.2
2017-10-18T12:42:59.033Z,35.3
2017-10-18T12:44:17.701Z,35.3
2017-10-18T12:45:36.380Z,35.2
2017-10-18T12:46:55.073Z,35.2
2017-10-18T12:48:13.798Z,35.3
2017-10-18T12:49:32.509Z,35.4
2017-10-18T12:50:51.203Z,35.5
2017-10-18T12:52:09.888Z,35.5
2017-10-18T12:53:28.559Z,35.4
2017-10-18T12:54:47.221Z,35.4
2017-10-18T12:56:05.944Z,35.3
2017-10-18T12:57:24.607Z,35.1
2017-10-18T12:58:43.326Z,35.1
2017-10-18T13:00:01.992Z,35.2
2017-10-18T13:01:20.654Z,35.3
2017-10-18T13:02:39.314Z,35.3
2017-10-18T13:03:57.973Z,35.2
2017-10-18T13:05:16.681Z,35.1
2017-10-18T13:06:35.366Z,35.2
2017-10-18T13:07:54.074Z,35.3
2017-10-18T13:09:12.756Z,35.3
2017-10-18T13:10:31.431Z,35.4
2017-10-18T13:11:50.124Z,35.4
2017-10-18T13:13:08.801Z,35.4
2017-10-18T13:14:27.493Z,35.4
2017-10-18T13:15:46.165Z,35.4
2017-10-18T13:17:04.888Z,35.3
2017-10-18T13:18:23.553Z,35.3
2017-10-18T13:19:42.255Z,35.3
2017-10-18T13:21:00.911Z,35.3
2017-10-18T13:22:19.605Z,35.3
2017-10-18T13:23:38.297Z,35.5
2017-10-18T13:24:56.970Z,35.4
2017-10-18T13:26:15.641Z,35.5
2017-10-18T13:27:34.339Z,35.5
2017-10-18T13:28:53.048Z,35.5
2017-10-18T13:30:11.726Z,35.4
2017-10-18T13:31:30.411Z,35.5
2017-10-18T13:32:49.103Z,35.4
2017-10-18T13:34:07.804Z,35.4
2017-10-18T13:35:26.468Z,35.3
2017-10-18T13:36:45.128Z,35.4
2017-10-18T13:38:03.797Z,35.3
2017-10-18T13:39:22.507Z,34.8
2017-10-18T13:40:41.171Z,33
2017-10-18T13:41:59.859Z,30.3
2017-10-18T13:43:18.561Z,28.3
2017-10-18T13:44:37.222Z,27.2
2017-10-18T13:45:55.899Z,26.4
2017-10-18T13:47:14.572Z,25.7
2017-10-18T13:48:33.296Z,25.3
2017-10-18T13:49:51.951Z,24.9
2017-10-18T13:51:10.615Z,24.8
2017-10-18T13:52:29.280Z,24.4
2017-10-18T13:53:48.030Z,24.2
2017-10-18T13:55:06.693Z,24
2017-10-18T13:56:25.392Z,23.9
2017-10-18T13:57:44.070Z,23.6
2017-10-18T13:59:02.786Z,23.5
2017-10-18T14:00:21.488Z,23.4
2017-10-18T14:01:40.157Z,23.3
2017-10-18T14:02:58.820Z,23
2017-10-18T14:04:17.503Z,22.8
2017-10-18T14:05:36.166Z,22.7
2017-10-18T14:06:54.880Z,22.6
2017-10-18T14:08:13.542Z,22.2
2017-10-18T14:09:32.237Z,22.2
2017-10-18T14:10:50.904Z,22.1
2017-10-18T14:12:09.591Z,21.9
2017-10-18T14:13:28.303Z,21.8
2017-10-18T14:14:47.051Z,21.8
2017-10-18T14:16:05.727Z,21.7
2017-10-18T14:17:24.396Z,21.5
2017-10-18T14:18:43.096Z,21.5
2017-10-18T14:20:01.785Z,21.3
2017-10-18T14:21:20.485Z,21.2
2017-10-18T14:22:39.143Z,21.1
2017-10-18T14:23:57.855Z,21
2017-10-18T14:25:16.534Z,21
2017-10-18T14:26:35.201Z,20.9
2017-10-18T14:27:53.856Z,20.8
2017-10-18T14:29:12.530Z,20.8
2017-10-18T14:30:31.217Z,20.7
2017-10-18T14:31:49.889Z,20.6
2017-10-18T14:33:08.606Z,20.5
2017-10-18T14:34:27.267Z,20.5
2017-10-18T14:35:45.975Z,20.5
2017-10-18T14:37:04.699Z,20.4
2017-10-18T14:38:23.367Z,20.2
2017-10-18T14:39:42.057Z,20.2
2017-10-18T14:41:00.790Z,20.1
2017-10-18T14:42:19.482Z,20.1
2017-10-18T14:43:38.144Z,19.9
2017-10-18T14:44:56.811Z,19.9
2017-10-18T14:46:15.515Z,19.9
2017-10-18T14:47:34.183Z,19.9
2017-10-18T14:48:52.902Z,19.8
2017-10-18T14:50:11.559Z,19.7
2017-10-18T14:51:30.275Z,19.6
2017-10-18T14:52:48.948Z,19.4
2017-10-18T14:54:07.613Z,19.3
2017-10-18T14:55:26.282Z,19.3
2017-10-18T14:56:44.998Z,19.2
2017-10-18T14:58:03.671Z,19
2017-10-18T14:59:22.334Z,18.9
2017-10-18T15:00:41.007Z,18.9
2017-10-18T15:01:59.716Z,18.7
2017-10-18T15:03:18.382Z,18.8
2017-10-18T15:04:37.049Z,18.7
2017-10-18T15:05:55.721Z,18.7
2017-10-18T15:07:14.432Z,18.5
2017-10-18T15:08:33.095Z,18.3
2017-10-18T15:09:51.780Z,18.3
2017-10-18T15:11:10.447Z,18.3
2017-10-18T15:12:29.175Z,18.2
2017-10-18T15:13:47.926Z,18.1
2017-10-18T15:15:06.598Z,18.1
2017-10-18T15:16:25.265Z,18
2017-10-18T15:17:44.011Z,17.9
2017-10-18T15:19:02.727Z,17.8
2017-10-18T15:20:21.391Z,17.7
2017-10-18T15:21:40.054Z,17.7
2017-10-18T15:22:58.743Z,17.6
2017-10-18T15:24:17.406Z,17.4
2017-10-18T15:25:36.087Z,17.4
2017-10-18T15:26:54.756Z,17.4
2017-10-18T15:28:13.425Z,17.2
2017-10-18T15:29:32.085Z,17.2
2017-10-18T15:30:50.784Z,17.2
2017-10-18T15:32:09.497Z,17.1
2017-10-18T15:33:28.255Z,17.1
2017-10-18T15:34:46.913Z,17
2017-10-18T15:36:05.629Z,16.9
2017-10-18T15:37:24.317Z,16.9
2017-10-18T15:38:43.015Z,16.7
2017-10-18T15:40:01.706Z,16.7
2017-10-18T15:41:20.370Z,16.7
2017-10-18T15:42:39.104Z,16.6
2017-10-18T15:43:57.819Z,16.6
2017-10-18T15:45:16.481Z,16.5
2017-10-18T15:46:35.142Z,16.5
2017-10-18T15:47:53.812Z,16.4
2017-10-18T15:49:12.555Z,16.4
2017-10-18T15:50:31.259Z,16.3
2017-10-18T15:51:49.922Z,16.3
2017-10-18T15:53:08.594Z,16.2
2017-10-18T15:54:27.262Z,16.1
2017-10-18T15:55:45.942Z,16.1
2017-10-18T15:57:04.647Z,16
2017-10-18T15:58:23.305Z,15.9
2017-10-18T15:59:42.004Z,15.7
2017-10-18T16:01:00.705Z,15.7
2017-10-18T16:02:19.393Z,15.6
2017-10-18T16:03:38.061Z,15.5
2017-10-18T16:04:56.756Z,15.5
2017-10-18T16:06:15.418Z,15.4
2017-10-18T16:07:34.094Z,15.2
2017-10-18T16:08:52.806Z,15.2
2017-10-18T16:10:11.500Z,15.2
2017-10-18T16:11:30.189Z,15
2017-10-18T16:12:48.859Z,14.9
2017-10-18T16:14:07.597Z,14.8
2017-10-18T16:15:26.289Z,14.7
2017-10-18T16:16:44.962Z,14.6
2017-10-18T16:18:03.665Z,14.4
2017-10-18T16:19:22.348Z,14.3
2017-10-18T16:20:41.060Z,14.1
2017-10-18T16:21:59.721Z,14
2017-10-18T16:23:18.380Z,13.9
2017-10-18T16:24:37.048Z,13.9
2017-10-18T16:25:55.732Z,13.7
2017-10-18T16:27:14.438Z,13.5
2017-10-18T16:28:33.099Z,13.4
2017-10-18T16:29:51.795Z,13.3
2017-10-18T16:31:10.513Z,13.2
2017-10-18T16:32:29.207Z,13.1
2017-10-18T16:33:47.872Z,12.9
2017-10-18T16:35:06.532Z,12.9
2017-10-18T16:36:25.234Z,12.8
2017-10-18T16:37:43.945Z,12.7
2017-10-18T16:39:02.610Z,12.6
2017-10-18T16:40:21.270Z,12.6
2017-10-18T16:41:39.940Z,12.5
2017-10-18T16:42:58.638Z,12.5
2017-10-18T16:44:17.318Z,12.5
2017-10-18T16:45:35.987Z,12.4
2017-10-18T16:46:54.657Z,12.4
2017-10-18T16:48:13.323Z,12.4
2017-10-18T16:49:32.038Z,12.3
2017-10-18T16:50:50.703Z,12.2
2017-10-18T16:52:09.414Z,12.3
2017-10-18T16:53:28.104Z,12.2
2017-10-18T16:54:46.826Z,12.2
2017-10-18T16:56:05.506Z,12.3
2017-10-18T16:57:24.196Z,12.2
2017-10-18T16:58:42.852Z,12.2
2017-10-18T17:00:01.512Z,12.2
2017-10-18T17:01:20.172Z,12.1
2017-10-18T17:02:38.903Z,12.1
2017-10-18T17:03:57.569Z,11.9
2017-10-18T17:05:16.227Z,11.9
2017-10-18T17:06:34.892Z,11.9
2017-10-18T17:07:53.601Z,11.9
2017-10-18T17:09:12.317Z,11.9
2017-10-18T17:10:30.976Z,11.9
2017-10-18T17:11:49.632Z,11.8
2017-10-18T17:13:08.297Z,11.8
2017-10-18T17:14:26.978Z,11.7
2017-10-18T17:15:45.641Z,11.6
2017-10-18T17:17:04.306Z,11.5
2017-10-18T17:18:22.998Z,11.5
2017-10-18T17:19:41.698Z,11.4
2017-10-18T17:21:00.410Z,11.4
2017-10-18T17:22:19.085Z,11.4
2017-10-18T17:23:37.787Z,11.4
2017-10-18T17:24:56.450Z,11.4
2017-10-18T17:26:15.141Z,11.4
2017-10-18T17:27:33.866Z,11.5
2017-10-18T17:28:52.547Z,11.4
2017-10-18T17:30:11.217Z,11.3
2017-10-18T17:31:29.889Z,11.4
2017-10-18T17:32:48.551Z,11.3
2017-10-18T17:34:07.280Z,11.3
2017-10-18T17:35:25.979Z,11.3
2017-10-18T17:36:44.697Z,11.2
2017-10-18T17:38:03.368Z,11.2
2017-10-18T17:39:22.072Z,11.2
2017-10-18T17:40:40.737Z,11.1
2017-10-18T17:41:59.442Z,11
2017-10-18T17:43:18.134Z,10.9
2017-10-18T17:44:36.802Z,10.9
2017-10-18T17:45:55.465Z,10.7
2017-10-18T17:47:14.134Z,10.7
2017-10-18T17:48:32.863Z,10.7
2017-10-18T17:49:51.563Z,10.7